LiveATC.Net - Listen to live air traffic control over the Internet!

Airport/ARTCC Code
Frequency Search
(e.g., 124.400, 128.75)
Site-wide search
 


Browse Feeds
Top 50 Feeds
Coverage Map
Bad Weather Areas

LiveATC FAQ
Offer LiveATC feed
Contact LiveATC.net
Press Inquiries

LiveATC on iPhone
LiveATC on Android

Windows Phone
Windows 8/10

LiveATC Mobile
(Mobile browser)

ATC Audio Archives
Interesting Recordings

LiveATC Forums

Home Page
About LiveATC.net
Make a Donation
Terms of Use
Privacy Policy

Canadian Air Freqs

AIRMETs/SIGMETs

FAA Airport Status
Nat'l Airspace Status
Arrival Demand Charts


Server Software By:
Icecast.org
Liquidsoap


Current Potentially Bad Weather Airports
(updated every 30 minutes - sorted alphabetically by ICAO code)



This page lists LiveATC.net airport areas that may be interesting to listen to because of challenging flying (weather) conditions. Challenging weather conditions include low ceilings, limited visibility, high or gusty winds, or thunderstorms.

Updated: Mon Sep 28 21:10:01 UTC 2020
Click on airport name to go to that airport area's feeds.

CYYT ATIS St. John's International Airport (St. John's, CA-NL)
WX MAP UNAVAILABLENearest METAR:
CYYT 282000Z 28021G30KT 15SM FEW015 SCT220 18/16 A3008 RMK SC2CI2 SLP189 DENSITY ALT 800FT
EHAM App/Dep TMA East Schiphol International Airport (Amsterdam, Netherlands)
WX MAP UNAVAILABLENearest METAR:
EHAM 282055Z 16004KT 4000 BR FEW001 BKN002 OVC003 13/13 Q1011 NOSIG
EHBK ATIS Maastricht Aachen Airport (Beek, Netherlands)
WX MAP UNAVAILABLENearest METAR:
EHBK 282055Z AUTO 19006KT 160V220 9999 OVC007/// 11/10 Q1012 NOSIG
EHGG Approach Groningen Airport Eelde (Groningen, Netherlands)
WX MAP UNAVAILABLENearest METAR:
EHGG 282055Z AUTO 18007KT 150V220 3500 BR OVC002 12/12 Q1011 NOSIG
EHLE Tower Lelystad Airport (Lelystad, Netherlands)
WX MAP UNAVAILABLENearest METAR:
EHLE 282055Z AUTO 18006KT 160V220 4300 BR OVC003 12/12 Q1011
EHRD Del/Twr Rotterdam The Hague Airport (Rotterdam, Netherlands)
WX MAP UNAVAILABLENearest METAR:
EHRD 282055Z AUTO 20001KT 2800 +DZ BKN003 OVC004 14/14 Q1011 TEMPO 6000 BKN005
ENCN Tower/Approach Kristiansand Airport - Kjevik (Kristiansand, Norway)
WX MAP UNAVAILABLENearest METAR:
ENCN 282050Z 05009KT 6000 OVC006 13/12 Q1014
ENOR Sector 8 Moss Airport - Rygge (Moss, Norway)
WX MAP UNAVAILABLENearest METAR:
ENRY 282050Z AUTO 07005KT 050V110 9999NDV OVC008/// 12/11 Q1015
ENTO Tower/App Sandefjord Airport - Torp (Sandefjord, Norway)
WX MAP UNAVAILABLENearest METAR:
ENTO 282050Z 04003KT 9000 BKN007 OVC009 12/12 Q1015 NOSIG
EPWR Twr/App Strachowice Airport (Wroclaw, Poland)
WX MAP UNAVAILABLENearest METAR:
EPWR 282030Z 31003KT 3500 -DZ BR SCT002 BKN005 OVC007 11/10 Q1013
ESPA Twr/Control Lulea Airport (Lulea, Sweden)
WX MAP UNAVAILABLENearest METAR:
ESPA 282050Z VRB01KT 0150 R14/0450N R32/0400V0650N FG VV002 09/09 Q1019
KADS Tower Addison Airport (Dallas, US-TX)
kadsNearest METAR:
KADS 282047Z 3501831KT 10SM SKC 24/02 A3011
KAPF Ft Myers App/Dep Naples Municipal Airport (Naples, US-FL)
kapfNearest METAR:
KAPF 282053Z 28011KT 9SM FEW022 31/26 A2984 RMK AO2 LTG DSNT E SLP104 T03060261 56015 $
KAUG Del/CTAF Augusta State Airport (Augusta, US-ME)
kaugNearest METAR:
KAUG 282053Z AUTO 17003KT 8SM OVC004 20/19 A2994 RMK AO2 SLP139 T02000194 58009
KBCT ATIS Boca Raton Airport (Boca Raton, US-FL)
kbctNearest METAR:
KBCT 282047Z 27006KT 8SM VCTS FEW023 SCT029 28/22 A2987 RMK LTG DSNT ALQDS
KBFM Ground/Tower Mobile Downtown Airport (Mobile, US-AL)
kbfmNearest METAR:
KBFM 282053Z 21007KT 180V240 10SM VCTS FEW029 SCT036 32/23 A2980 RMK AO2 LTG DSNT W AND NW SLP091 60000 T03170233 56018
KBGR Del/Gnd/Twr Bangor International Airport (Bangor, US-ME)
kbgrNearest METAR:
KBGR 282053Z 15008KT 6SM BR OVC005 20/18 A2996 RMK AO2 SLP142 60000 T02000183 58007
KBHM Gnd/Twr/App Birmingham-Shuttlesworth International Airport (Birmingham, US-AL)
kbhmNearest METAR:
KBHM 282053Z AUTO 22008KT 10SM SCT045 BKN055 BKN080 28/19 A2981 RMK AO2 LTG DSNT W AND NW SLP087 T02780194 56017
KBID CTAF Block Island State Airport (Block Island, US-RI)
kbidNearest METAR:
KBID 282056Z AUTO 20006KT 10SM OVC003 19/18 A2996 RMK AO2 SLP145 60000 T01940183 55006
KBOW AWOS Bartow Municipal Airport (Bartow, US-FL)
kbowNearest METAR:
KBOW 282050Z 01014KT 1 1/2SM VCTS SCT025 24/23 A2989 RA
KCRG Gnd/Twr/App Craig Municipal Airport (Jacksonville, US-FL)
kcrgNearest METAR:
KCRG 282053Z 00000KT 10SM BKN090 27/23 A2988 RMK AO2 LTG DSNT N AND NW SLP117 60000 T02720233 58007
KDAB App/Dep (All) Daytona Beach International Airport (Daytona Beach, US-FL)
kdabNearest METAR:
KDAB 282053Z 25008KT 1 1/2SM +TSRA BR SCT024 BKN032CB OVC047 24/24 A2989 RMK AO2 SFC VIS 2 LTG DSNT ALQDS RAB23 SLP120 OCNL LTGICCG OHD-ALQDS TS OHD-ALQDS MOV E P0026 60026 T02440244 55002
KDED/1J6 CTAF/UNICOM DeLand Municipal Airport-Sidney H Taylor Field (DeLand, US-FL)
kdedNearest METAR:
KDED 282035Z AUTO 15005KT 10SM SCT031 SCT042 BKN050 29/24 A2988 RMK AO2 LTG DSNT ALQDS T02870237
KDPA Del/Gnd/Twr/Misc Dupage Airport (Chicago, US-IL)
kdpaNearest METAR:
KDPA 282052Z 28013G23KT 10SM FEW039 SCT070 BKN080 16/08 A2974 RMK AO2 LTG DSNT E SLP072 60000 T01610083 55002
KFLL Ground/Tower Fort Lauderdale/Hollywood International Airport (Fort Lauderdale, US-FL)
kfllNearest METAR:
KFLL 282053Z 26006KT 10SM SCT029 SCT045 BKN110 BKN190 BKN250 29/24 A2985 RMK AO2 LTG DSNT NW SLP107 CB DSNT NW T02940239 56010
KFMY Del/Gnd/Twr Page Field Airport (Fort Myers, US-FL)
kfmyNearest METAR:
KFMY 282053Z 34010KT 10SM BKN031 32/25 A2983 RMK AO2 LTG DSNT NE AND E SLP104 T03170250 56015
Palm Beach App/Dep St Lucie County International Airport (Fort Pierce, US-FL)
kvrbNearest METAR:
KVRB 282053Z 13008KT 10SM SCT085 29/25 A2985 RMK AO2 LTG DSNT NW SLP108 60004 T02940250 55012
KGIF ASOS Winter Haven's Gilbert Airport (Winter Haven, US-FL)
kgifNearest METAR:
KGIF 282053Z AUTO 04013G21KT 1SM +TSRA BR BKN016 BKN029 OVC048 23/22 A2991 RMK AO2 LTG DSNT NE AND E SLP125 P0289 60296 T02330222 53015
KGPT App/Dep Gulfport-Biloxi International Airport (Gulfport, US-MS)
kgptNearest METAR:
KGPT 282053Z 28009G20KT 4SM +TSRA FEW034 BKN050 BKN070 26/21 A2983 RMK AO2 LTG DSNT NE AND SW AND W RAB50 TSB40 PRESRR SLP100 P0004 60004 T02560211 55003
KHDC De/Gnd/Twr/App/ZHU Hammond Northshore Regional Airport (Hammond, US-LA)
khdcNearest METAR:
KHDC 282055Z AUTO 01007G14KT 10SM SCT039 SCT060 SCT100 22/20 A2982 RMK AO2 LTG DSNT W
KHSV Gnd/Twr/App/Dep Huntsville International Airport-Carl T Jones Field (Huntsville, US-AL)
khsvNearest METAR:
KHSV 282053Z 31017G26KT 10SM BKN012 OVC021 18/16 A2983 RMK AO2 PK WND 29035/1955 WSHFT 1951 LTG DSNT NE-SE RAE52 TSE49 SLP095 CB DSNT NE-SE P0042 60042 T01780161 53006
KHUL/KPQI/ZBW01/15 Houlton International Airport (Houlton, US-ME)
khulNearest METAR:
KHUL 282053Z AUTO 19007KT 150V220 10SM OVC009 21/19 A2994 RMK AO2 CIG 008V012 SLP138 60001 T02060189 58001
KHWO ATIS North Perry Airport (Hollywood, US-FL)
khwoNearest METAR:
KHWO 282053Z VRB04KT 10SM SCT030 29/24 A2987 RMK AO2 LTG DSNT N SLP114 T02940244 56009
KHWV CTAF Brookhaven Airport (Shirley, US-NY)
khwvNearest METAR:
KHWV 282056Z AUTO 18008KT 10SM OVC009 22/18 A2994 RMK AO2 CIG 008V012 SLP138 T02170183 50000
KHYA Emergency/Guard Barnstable Municipal Airport-Boardman/Polando Field (Hyannis, US-MA)
khyaNearest METAR:
KHYA 282056Z 19008KT 4SM RA BR OVC004 21/21 A2995 RMK AO2 RAB36 CIG 002V007 SLP144 P0001 60001 T02110206 56001
KINF CTAF Inverness Airport (Inverness, US-FL)
kinfNearest METAR:
KINF 282055Z AUTO 00000KT 7SM SCT023 SCT029 SCT033 26/26 A2987 RMK AO2 LTG DSNT NE THRU SE P0001
KJAX Approach/Departure Jacksonville International Airport (Jacksonville, US-FL)
kjaxNearest METAR:
KJAX 282056Z 19004KT 10SM SCT030 BKN060 OVC200 26/23 A2986 RMK AO2 LTG DSNT N SLP113 T02610233 56009
KISM Del/Gnd/Twr Kissimmee Gateway Airport (Orlando, US-FL)
kismNearest METAR:
KISM 282056Z TS RMK AO2 LTG DSNT ALQDS TSE25B40 SLPNO 6//// $
KLEE App/Dep Leesburg International Airport (Leesburg, US-FL)
kleeNearest METAR:
KLEE 282053Z 00000KT 10SM BKN010 BKN019 OVC031 26/25 A2990 RMK AO2 LTG DSNT NE-SE RAE43 TSE01 SLP122 P0002 60002 T02560250 51006
KMCO App (Disney Sector) Orlando International Airport (Orlando, US-FL)
kmcoNearest METAR:
KMCO 282053Z 32008KT 10SM -TSRA FEW023CB SCT070 BKN110 BKN250 25/23 A2988 RMK AO2 LTG DSNT ALQDS SLP118 OCNL LTGICCG N-NE TS N-NE MOV NE P0001 60006 T02500233 55003
KMDW Tower #1 Chicago Midway International Airport (Chicago, US-IL)
kmdwNearest METAR:
KMDW 282053Z 27008KT 10SM FEW050 SCT075 BKN090 16/10 A2974 RMK AO2 LTG DSNT N RAE07 SLP070 OCNL LTGICCG DSNT N-NE CB DSNT N-NE P0001 60001 T01560100 58001
KMFD ATIS Mansfield Lahm Regional Airport (Mansfield, US-OH)
kmfdNearest METAR:
KMFD 282057Z AUTO 22005KT 1 1/4SM +RA BR FEW017 BKN029 OVC055 19/19 A2968 RMK AO2 P0002 T01940194
KMLB Twr/App Melbourne International Airport (Melbourne, US-FL)
kmlbNearest METAR:
KMLB 282053Z 13009KT 10SM FEW015 29/26 A2985 RMK AO2 LTG DSNT ALQDS SLP108 T02890261 56010
KMOB Gnd/Twr/App Mobile Regional Airport (Mobile, US-AL)
kmobNearest METAR:
KMOB 282056Z 07004KT 10SM VCTS FEW038CB FEW065 SCT080 27/19 A2980 RMK AO2 PK WND 03029/2036 LTG DSNT W-N TSB01E53 SLP087 OCNL LTGIC NE-E TS VC NE-E MOV E CB DSNT W-N VCSH NW AND E T02670189 56015
KMSY Del/Gnd/Twr/App Louis Armstrong New Orleans International Airport (New Orleans, US-LA)
kmsyNearest METAR:
KMSY 282053Z 32007KT 10SM FEW045 SCT100 BKN250 28/20 A2981 RMK AO2 LTG DSNT E AND SE TSE17 SLP097 CB DSNT E-SE 60000 T02830200 58009
KMTC Area CTAF Ray Community Airport (Ray, US-MI)
kphnNearest METAR:
KPHN 282055Z AUTO 29007KT 10SM OVC007 14/13 A2966 RMK AO2
KNEW Del/Gnd Lakefront Airport (New Orleans, US-LA)
knewNearest METAR:
KNEW 282053Z AUTO A2983 RMK AO2 LTG DSNT SE SLP096 6//// 58003 PWINO PNO $
KORD Ground Chicago O'Hare International Airport (Chicago, US-IL)
kordNearest METAR:
KORD 282051Z 31007KT 10SM FEW025 SCT038 BKN090 16/09 A2974 RMK AO2 LTG DSNT E SLP070 60000 T01610094 55000
KORL Tower Orlando Executive Airport (Orlando, US-FL)
korlNearest METAR:
KORL 282053Z 29009KT 4SM TSRA BR FEW008 BKN045 BKN055 24/24 A2989 RMK AO2 LTG DSNT ALQDS TSE07B08 SLP125 P0011 60062 T02440239 50009
KMCO App (North Satellite) Orlando Executive Airport (Orlando, US-FL)
korlNearest METAR:
KSFB 282053Z 23018G27KT 8SM VCTS -RA FEW014 SCT026 BKN045 27/25 A2987 RMK AO2 PK WND 23027/2053 LTG DSNT ALQDS RAB46 SLP115 P0000 60000 T02670250 55006
KPGD ATIS Charlotte County Airport (Punta Gorda, US-FL)
kpgdNearest METAR:
KPGD 282053Z 28009KT 10SM SCT037 32/24 A2985 RMK AO2 LTG DSNT NE AND E SLP107 T03220239 56017
KPMP Tower Pompano Beach Airpark (Pompano Beach, US-FL)
kpmpNearest METAR:
KPMP 282053Z 32008KT 10SM BKN024 BKN029 BKN036 28/24 A2986 RMK AO2 LTG DSNT NW SLP112 T02830239 55008
KPWK Del/Gnd/Tower Chicago Executive Airport (Chicago/Prospect Heights/Wheeling, US-IL)
kpwkNearest METAR:
KPWK 282052Z 29008KT 10SM SCT090 17/12 A2975 RMK AO2 LTG DSNT SE RAE08 SLP074 P0002 60005 T01670117 50001
KPWM Gnd/Twr/App Portland International Jetport (Portland, US-ME)
kpwmNearest METAR:
KPWM 282055Z 18008G16KT 10SM OVC005 21/19 A2993 RMK AO2 T02110189
KRSW Gnd/Twr/App/Dep Southwest Florida International Airport (Fort Myers, US-FL)
krswNearest METAR:
KRSW 282053Z VRB04KT 10SM FEW034 SCT048 BKN055 31/23 A2984 RMK AO2 LTG DSNT NE AND SE SLP101 T03110233 56008
KSEF CTAF Sebring Regional Airport (Sebring, US-FL)
ksefNearest METAR:
KSEF 282035Z AUTO 31012KT 10SM TS BKN040 OVC046 29/24 A2986 RMK AO2 LTG DSNT ALQDS T02920239
KSGJ Ground/Tower St Augustine Airport (St Augustine, US-FL)
ksgjNearest METAR:
KSGJ 282056Z 00000KT 5SM BR BKN013 BKN020 26/23 A2990 RMK AO2 LTG DSNT S TSE08RAE20 SLP123 P0000 60023 T02560233 50002 $
KUGN Tower Waukegan Regional Airport (Chicago/Waukegan, US-IL)
kugnNearest METAR:
KUGN 282055Z VRB06KT 10SM BKN019 OVC080 15/10 A2973 RMK AO2 LTG DSNT S SLP065 60002 T01500100 53004
KWDR/KCVC/KCNI CTAF Barrow County Airport (Winder, US-GA)
kwdrNearest METAR:
KWDR 282035Z AUTO 18003KT 10SM SCT042 SCT065 27/17 A2987 RMK AO2 LTG DSNT SE AND NW
Bordeaux Control Angouleme Airport (Angouleme, France)
WX MAP UNAVAILABLENearest METAR:
LFBU 282030Z AUTO 24002KT CAVOK 12/09 Q1020 TEMPO OVC008
LHBP Twr/Info Budapest Ferihegy International Airport (Budapest, Hungary)
WX MAP UNAVAILABLENearest METAR:
LHBP 282030Z 17003KT 2000 R31L/P2000N R31R/0750N BCFG BR BKN002 OVC009 14/13 Q1011 TEMPO 1200 BCFG BR BKN001 OVC009
MMGL Twr/App Don Miguel Hidalgo y Costilla International (Guadalajara, Mexico)
WX MAP UNAVAILABLENearest METAR:
MMGL 282051Z 20015G27KT 6SM TSRA BKN015CB OVC080 17/15 A3006 RMK SLP092 57003 915 8/96/ TSRAB40
MROC Del/Gnd/Twr/App/Center/Misc Juan Santamaria International Airport (San Jose, Costa Rica)
WX MAP UNAVAILABLENearest METAR:
MROC 282048Z 25011KT 5000 TSRA FEW007 SCT010CB BKN020 22/21 A2986 NOSIG
PASC CTAF/Unicom/AFIS/App Deadhorse Airport (Deadhorse, US-AK)
WX MAP UNAVAILABLENearest METAR:
PASC 282053Z 05007KT 1/4SM R06/1200V2400FT FG VV002 01/M01 A2978 RMK AO2 SLP086 60000 T00061006 53014